createdAt,value
2018-10-18T00:00:26.565Z,969.64
2018-10-18T00:01:26.548Z,969.64
2018-10-18T00:02:26.466Z,969.70
2018-10-18T00:03:26.537Z,969.69
2018-10-18T00:04:26.365Z,969.69
2018-10-18T00:05:26.317Z,969.65
2018-10-18T00:06:26.304Z,969.69
2018-10-18T00:07:26.217Z,969.69
2018-10-18T00:08:26.176Z,969.69
2018-10-18T00:09:26.116Z,969.67
2018-10-18T00:10:26.069Z,969.69
2018-10-18T00:11:26.052Z,969.66
2018-10-18T00:12:25.968Z,969.71
2018-10-18T00:13:25.918Z,969.71
2018-10-18T00:14:25.881Z,969.68
2018-10-18T00:15:25.820Z,969.71
2018-10-18T00:16:25.809Z,969.73
2018-10-18T00:17:25.721Z,969.72
2018-10-18T00:18:25.671Z,969.69
2018-10-18T00:19:25.638Z,969.69
2018-10-18T00:20:25.574Z,969.68
2018-10-18T00:21:25.564Z,969.65
2018-10-18T00:22:25.484Z,969.66
2018-10-18T00:23:25.422Z,969.69
2018-10-18T00:24:25.372Z,969.67
2018-10-18T00:25:25.329Z,969.66
2018-10-18T00:26:25.305Z,969.67
2018-10-18T00:27:25.225Z,969.66
2018-10-18T00:28:25.205Z,969.69
2018-10-18T00:29:25.151Z,969.68
2018-10-18T00:30:25.076Z,969.68
2018-10-18T00:31:25.029Z,969.69
2018-10-18T00:32:25.009Z,969.67
2018-10-18T00:33:24.925Z,969.69
2018-10-18T00:34:24.875Z,969.67
2018-10-18T00:35:24.825Z,969.65
2018-10-18T00:36:24.781Z,969.66
2018-10-18T00:37:24.759Z,969.68
2018-10-18T00:38:24.683Z,969.65
2018-10-18T00:39:24.626Z,969.65
2018-10-18T00:40:24.577Z,969.65
2018-10-18T00:41:24.527Z,969.65
2018-10-18T00:42:24.521Z,969.61
2018-10-18T00:43:24.435Z,969.60
2018-10-18T00:44:24.376Z,969.61
2018-10-18T00:45:24.328Z,969.60
2018-10-18T00:46:24.279Z,969.57
2018-10-18T00:47:24.259Z,969.60
2018-10-18T00:48:24.176Z,969.58
2018-10-18T00:49:24.128Z,969.56
2018-10-18T00:50:24.076Z,969.58
2018-10-18T00:51:24.028Z,969.58
2018-10-18T00:52:24.010Z,969.61
2018-10-18T00:53:23.930Z,969.59
2018-10-18T00:54:23.878Z,969.59
2018-10-18T00:55:23.860Z,969.60
2018-10-18T00:56:23.782Z,969.62
2018-10-18T00:57:23.732Z,969.63
2018-10-18T00:58:23.679Z,969.61
2018-10-18T00:59:23.629Z,969.58
2018-10-18T01:00:23.622Z,969.59
2018-10-18T01:01:23.526Z,969.60
2018-10-18T01:02:23.496Z,969.57
2018-10-18T01:03:23.432Z,969.58
2018-10-18T01:04:23.378Z,969.56
2018-10-18T01:05:23.362Z,969.58
2018-10-18T01:06:23.278Z,969.55
2018-10-18T01:07:23.236Z,969.57
2018-10-18T01:08:23.215Z,969.54
2018-10-18T01:09:23.127Z,969.50
2018-10-18T01:10:23.079Z,969.50
2018-10-18T01:11:23.032Z,969.51
2018-10-18T01:12:23.070Z,969.48
2018-10-18T01:13:22.965Z,969.48
2018-10-18T01:14:22.904Z,969.48
2018-10-18T01:15:22.834Z,969.48
2018-10-18T01:16:22.814Z,969.50
2018-10-18T01:17:22.729Z,969.48
2018-10-18T01:18:22.679Z,969.48
2018-10-18T01:19:22.631Z,969.49
2018-10-18T01:20:22.583Z,969.49
2018-10-18T01:21:22.567Z,969.48
2018-10-18T01:22:22.481Z,969.48
2018-10-18T01:23:22.429Z,969.48
2018-10-18T01:24:22.382Z,969.51
2018-10-18T01:25:22.330Z,969.49
2018-10-18T01:26:22.409Z,969.48
2018-10-18T01:27:22.229Z,969.49
2018-10-18T01:28:22.179Z,969.44
2018-10-18T01:29:22.132Z,969.42
2018-10-18T01:30:22.084Z,969.41
2018-10-18T01:31:22.075Z,969.48
2018-10-18T01:32:21.981Z,969.43
2018-10-18T01:33:21.928Z,969.43
2018-10-18T01:34:21.881Z,969.45
2018-10-18T01:35:21.832Z,969.43
2018-10-18T01:36:21.814Z,969.46
2018-10-18T01:37:21.763Z,969.45
2018-10-18T01:38:21.711Z,969.48
2018-10-18T01:39:21.632Z,969.45
2018-10-18T01:40:21.609Z,969.43
2018-10-18T01:41:21.529Z,969.44
2018-10-18T01:42:21.483Z,969.43
2018-10-18T01:43:21.428Z,969.41
2018-10-18T01:44:21.407Z,969.40
2018-10-18T01:45:21.326Z,969.40
2018-10-18T01:46:21.278Z,969.36
2018-10-18T01:47:21.230Z,969.37
2018-10-18T01:48:21.180Z,969.36
2018-10-18T01:49:21.163Z,969.34
2018-10-18T01:50:21.079Z,969.34
2018-10-18T01:51:21.026Z,969.33
2018-10-18T01:52:20.982Z,969.35
2018-10-18T01:53:20.931Z,969.32
2018-10-18T01:54:20.915Z,969.33
2018-10-18T01:55:20.833Z,969.35
2018-10-18T01:56:20.773Z,969.34
2018-10-18T01:57:20.728Z,969.34
2018-10-18T01:58:20.713Z,969.32
2018-10-18T01:59:20.624Z,969.29
2018-10-18T02:00:20.670Z,969.33
2018-10-18T02:01:20.525Z,969.32
2018-10-18T02:02:20.479Z,969.30
2018-10-18T02:03:20.455Z,969.31
2018-10-18T02:04:20.374Z,969.29
2018-10-18T02:05:20.323Z,969.27
2018-10-18T02:06:20.270Z,969.29
2018-10-18T02:07:20.227Z,969.29
2018-10-18T02:08:20.208Z,969.30
2018-10-18T02:09:20.123Z,969.27
2018-10-18T02:10:20.072Z,969.26
2018-10-18T02:11:20.025Z,969.28
2018-10-18T02:12:19.967Z,969.26
2018-10-18T02:13:19.949Z,969.26
2018-10-18T02:14:19.902Z,969.25
2018-10-18T02:15:19.817Z,969.27
2018-10-18T02:16:19.779Z,969.23
2018-10-18T02:17:19.715Z,969.26
2018-10-18T02:18:19.791Z,969.21
2018-10-18T02:19:20.112Z,969.21
2018-10-18T02:20:19.564Z,969.23
2018-10-18T02:21:19.514Z,969.18
2018-10-18T02:22:19.462Z,969.19
2018-10-18T02:23:19.417Z,969.19
2018-10-18T02:24:19.394Z,969.16
2018-10-18T02:25:19.415Z,969.17
2018-10-18T02:26:19.261Z,969.15
2018-10-18T02:27:19.252Z,969.17
2018-10-18T02:28:19.175Z,969.20
2018-10-18T02:29:19.111Z,969.20
2018-10-18T02:30:19.194Z,969.22
2018-10-18T02:31:19.009Z,969.15
2018-10-18T02:32:19.089Z,969.20
2018-10-18T02:33:18.909Z,969.18
2018-10-18T02:34:18.858Z,969.21
2018-10-18T02:35:18.810Z,969.20
2018-10-18T02:36:18.903Z,969.21
2018-10-18T02:37:18.744Z,969.22
2018-10-18T02:38:18.698Z,969.22
2018-10-18T02:39:18.630Z,969.20
2018-10-18T02:40:18.562Z,969.21
2018-10-18T02:41:18.546Z,969.18
2018-10-18T02:42:18.570Z,969.20
2018-10-18T02:43:18.474Z,969.26
2018-10-18T02:44:18.358Z,969.18
2018-10-18T02:45:18.306Z,969.22
2018-10-18T02:46:18.250Z,969.23
2018-10-18T02:47:18.204Z,969.26
2018-10-18T02:48:18.229Z,969.20
2018-10-18T02:49:18.099Z,969.21
2018-10-18T02:50:18.047Z,969.23
2018-10-18T02:51:17.999Z,969.22
2018-10-18T02:52:17.981Z,969.22
2018-10-18T02:53:17.897Z,969.22
2018-10-18T02:54:17.966Z,969.25
2018-10-18T02:55:17.799Z,969.23
2018-10-18T02:56:17.742Z,969.25
2018-10-18T02:57:17.696Z,969.24
2018-10-18T02:58:17.647Z,969.24
2018-10-18T02:59:17.641Z,969.26
2018-10-18T03:00:17.695Z,969.27
2018-10-18T03:01:17.496Z,969.21
2018-10-18T03:02:17.449Z,969.27
2018-10-18T03:03:17.396Z,969.26
2018-10-18T03:04:17.371Z,969.28
2018-10-18T03:05:17.291Z,969.27
2018-10-18T03:06:17.359Z,969.29
2018-10-18T03:07:17.217Z,969.30
2018-10-18T03:08:17.175Z,969.32
2018-10-18T03:09:17.087Z,969.31
2018-10-18T03:10:17.080Z,969.35
2018-10-18T03:11:16.987Z,969.32
2018-10-18T03:12:16.997Z,969.33
2018-10-18T03:13:16.892Z,969.30
2018-10-18T03:14:16.837Z,969.34
2018-10-18T03:15:16.820Z,969.34
2018-10-18T03:16:16.768Z,969.34
2018-10-18T03:17:16.685Z,969.35
2018-10-18T03:18:16.713Z,969.34
2018-10-18T03:19:16.579Z,969.39
2018-10-18T03:20:16.532Z,969.34
2018-10-18T03:21:16.517Z,969.36
2018-10-18T03:22:16.425Z,969.34
2018-10-18T03:23:16.386Z,969.37
2018-10-18T03:24:16.337Z,969.35
2018-10-18T03:25:16.278Z,969.37
2018-10-18T03:26:16.253Z,969.35
2018-10-18T03:27:16.173Z,969.34
2018-10-18T03:28:16.157Z,969.34
2018-10-18T03:29:16.069Z,969.36
2018-10-18T03:30:16.147Z,969.37
2018-10-18T03:31:15.970Z,969.40
2018-10-18T03:32:15.945Z,969.40
2018-10-18T03:33:15.870Z,969.39
2018-10-18T03:34:15.821Z,969.43
2018-10-18T03:35:15.832Z,969.45
2018-10-18T03:36:15.823Z,969.46
2018-10-18T03:37:15.665Z,969.46
2018-10-18T03:38:15.642Z,969.43
2018-10-18T03:39:15.572Z,969.42
2018-10-18T03:40:15.512Z,969.46
2018-10-18T03:41:15.518Z,969.41
2018-10-18T03:42:15.585Z,969.43
2018-10-18T03:43:15.361Z,969.40
2018-10-18T03:44:15.314Z,969.42
2018-10-18T03:45:15.255Z,969.47
2018-10-18T03:46:15.235Z,969.47
2018-10-18T03:47:15.191Z,969.48
2018-10-18T03:48:15.118Z,969.45
2018-10-18T03:49:15.058Z,969.47
2018-10-18T03:50:15.009Z,969.46
2018-10-18T03:51:14.966Z,969.41
2018-10-18T03:52:14.945Z,969.46
2018-10-18T03:53:14.858Z,969.46
2018-10-18T03:54:14.839Z,969.47
2018-10-18T03:55:14.751Z,969.44
2018-10-18T03:56:14.699Z,969.44
2018-10-18T03:57:14.686Z,969.45
2018-10-18T03:58:14.595Z,969.47
2018-10-18T03:59:14.553Z,969.49
2018-10-18T04:00:14.583Z,969.49
2018-10-18T04:01:14.442Z,969.52
2018-10-18T04:02:14.454Z,969.52
2018-10-18T04:03:14.345Z,969.55
2018-10-18T04:04:14.292Z,969.54
2018-10-18T04:05:14.245Z,969.54
2018-10-18T04:06:14.309Z,969.54
2018-10-18T04:07:14.172Z,969.54
2018-10-18T04:08:14.085Z,969.52
2018-10-18T04:09:14.078Z,969.49
2018-10-18T04:10:13.996Z,969.54
2018-10-18T04:11:13.977Z,969.48
2018-10-18T04:12:13.956Z,969.53
2018-10-18T04:13:13.889Z,969.49
2018-10-18T04:14:13.819Z,969.51
2018-10-18T04:15:13.731Z,969.50
2018-10-18T04:16:13.679Z,969.49
2018-10-18T04:17:13.635Z,969.49
2018-10-18T04:18:13.592Z,969.49
2018-10-18T04:19:13.572Z,969.47
2018-10-18T04:20:13.476Z,969.49
2018-10-18T04:21:13.431Z,969.47
2018-10-18T04:22:13.377Z,969.47
2018-10-18T04:23:13.326Z,969.46
2018-10-18T04:24:13.387Z,969.47
2018-10-18T04:25:13.227Z,969.43
2018-10-18T04:26:13.177Z,969.44
2018-10-18T04:27:13.121Z,969.48
2018-10-18T04:28:13.068Z,969.42
2018-10-18T04:29:13.052Z,969.42
2018-10-18T04:30:13.042Z,969.43
2018-10-18T04:31:12.961Z,969.41
2018-10-18T04:32:12.865Z,969.46
2018-10-18T04:33:12.815Z,969.41
2018-10-18T04:34:12.764Z,969.39
2018-10-18T04:35:12.710Z,969.38
2018-10-18T04:36:12.807Z,969.38
2018-10-18T04:37:12.616Z,969.39
2018-10-18T04:38:12.560Z,969.36
2018-10-18T04:39:12.507Z,969.40
2018-10-18T04:40:12.457Z,969.37
2018-10-18T04:41:12.444Z,969.38
2018-10-18T04:42:12.442Z,969.40
2018-10-18T04:43:12.303Z,969.38
2018-10-18T04:44:12.256Z,969.39
2018-10-18T04:45:12.203Z,969.40
2018-10-18T04:46:12.184Z,969.39
2018-10-18T04:47:12.188Z,969.41
2018-10-18T04:48:12.101Z,969.38
2018-10-18T04:49:11.999Z,969.39
2018-10-18T04:50:11.984Z,969.42
2018-10-18T04:51:11.895Z,969.40
2018-10-18T04:52:11.862Z,969.46
2018-10-18T04:53:11.801Z,969.48
2018-10-18T04:54:11.741Z,969.43
2018-10-18T04:55:11.752Z,969.47
2018-10-18T04:56:11.645Z,969.49
2018-10-18T04:57:11.592Z,969.49
2018-10-18T04:58:11.536Z,969.52
2018-10-18T04:59:11.485Z,969.54
2018-10-18T05:00:11.474Z,969.57
2018-10-18T05:01:11.483Z,969.55
2018-10-18T05:02:11.332Z,969.58
2018-10-18T05:03:11.279Z,969.59
2018-10-18T05:04:11.230Z,969.64
2018-10-18T05:05:11.212Z,969.64
2018-10-18T05:06:11.164Z,969.62
2018-10-18T05:07:11.093Z,969.64
2018-10-18T05:08:11.022Z,969.67
2018-10-18T05:09:10.977Z,969.69
2018-10-18T05:10:10.924Z,969.65
2018-10-18T05:11:10.987Z,969.72
2018-10-18T05:12:10.818Z,969.72
2018-10-18T05:13:10.853Z,969.73
2018-10-18T05:14:10.722Z,969.73
2018-10-18T05:15:10.668Z,969.76
2018-10-18T05:16:10.659Z,969.75
2018-10-18T05:17:10.562Z,969.78
2018-10-18T05:18:10.510Z,969.80
2018-10-18T05:19:10.565Z,969.79
2018-10-18T05:20:10.409Z,969.80
2018-10-18T05:21:10.390Z,969.82
2018-10-18T05:22:10.315Z,969.81
2018-10-18T05:23:10.257Z,969.83
2018-10-18T05:24:10.213Z,969.82
2018-10-18T05:25:10.262Z,969.84
2018-10-18T05:26:10.154Z,969.81
2018-10-18T05:27:10.051Z,969.83
2018-10-18T05:28:09.996Z,969.84
2018-10-18T05:29:09.962Z,969.82
2018-10-18T05:30:09.899Z,969.84
2018-10-18T05:31:09.975Z,969.84
2018-10-18T05:32:09.792Z,969.87
2018-10-18T05:33:09.784Z,969.86
2018-10-18T05:34:09.689Z,969.91
2018-10-18T05:35:09.636Z,969.93
2018-10-18T05:36:09.598Z,969.96
2018-10-18T05:37:09.621Z,969.96
2018-10-18T05:38:09.516Z,969.98
2018-10-18T05:39:09.432Z,969.98
2018-10-18T05:40:09.385Z,970.04
2018-10-18T05:41:09.327Z,970.04
2018-10-18T05:42:09.310Z,970.08
2018-10-18T05:43:09.387Z,970.09
2018-10-18T05:44:09.205Z,970.14
2018-10-18T05:45:09.128Z,970.14
2018-10-18T05:46:09.073Z,970.18
2018-10-18T05:47:09.066Z,970.18
2018-10-18T05:48:08.967Z,970.20
2018-10-18T05:49:08.942Z,970.23
2018-10-18T05:50:08.866Z,970.25
2018-10-18T05:51:08.841Z,970.24
2018-10-18T05:52:08.814Z,970.25
2018-10-18T05:53:08.790Z,970.26
2018-10-18T05:54:08.670Z,970.29
2018-10-18T05:55:08.652Z,970.30
2018-10-18T05:56:08.558Z,970.27
2018-10-18T05:57:08.554Z,970.30
2018-10-18T05:58:08.463Z,970.29
2018-10-18T05:59:08.405Z,970.38
2018-10-18T06:00:08.429Z,970.34
2018-10-18T06:01:08.374Z,970.41
2018-10-18T06:02:08.291Z,970.40
2018-10-18T06:03:08.225Z,970.41
2018-10-18T06:04:08.141Z,970.44
2018-10-18T06:05:08.099Z,970.43
2018-10-18T06:06:08.044Z,970.44
2018-10-18T06:07:08.167Z,970.46
2018-10-18T06:08:07.948Z,970.46
2018-10-18T06:09:07.901Z,970.48
2018-10-18T06:10:07.875Z,970.47
2018-10-18T06:11:07.816Z,970.50
2018-10-18T06:12:07.808Z,970.48
2018-10-18T06:13:07.831Z,970.52
2018-10-18T06:14:07.630Z,970.57
2018-10-18T06:15:07.573Z,970.57
2018-10-18T06:16:07.521Z,970.62
2018-10-18T06:17:07.508Z,970.62
2018-10-18T06:18:07.428Z,970.62
2018-10-18T06:19:07.451Z,970.63
2018-10-18T06:20:07.318Z,970.66
2018-10-18T06:21:07.267Z,970.63
2018-10-18T06:22:07.259Z,970.63
2018-10-18T06:23:07.184Z,970.63
2018-10-18T06:24:07.110Z,970.64
2018-10-18T06:25:07.106Z,970.60
2018-10-18T06:26:07.005Z,970.63
2018-10-18T06:27:06.992Z,970.66
2018-10-18T06:28:06.911Z,970.67
2018-10-18T06:29:06.918Z,970.67
2018-10-18T06:30:06.799Z,970.68
2018-10-18T06:31:06.859Z,970.66
2018-10-18T06:32:06.699Z,970.65
2018-10-18T06:33:06.728Z,970.65
2018-10-18T06:34:06.590Z,970.65
2018-10-18T06:35:06.595Z,970.64
2018-10-18T06:36:06.491Z,970.63
2018-10-18T06:37:06.517Z,970.65
2018-10-18T06:38:06.389Z,970.67
2018-10-18T06:39:06.390Z,970.66
2018-10-18T06:40:06.318Z,970.70
2018-10-18T06:41:06.331Z,970.67
2018-10-18T06:42:06.182Z,970.69
2018-10-18T06:43:06.268Z,970.72
2018-10-18T06:44:06.087Z,970.71
2018-10-18T06:45:06.071Z,970.71
2018-10-18T06:46:05.974Z,970.76
2018-10-18T06:47:05.964Z,970.75
2018-10-18T06:48:05.984Z,970.81
2018-10-18T06:49:05.929Z,970.76
2018-10-18T06:50:05.793Z,970.76
2018-10-18T06:51:05.713Z,970.75
2018-10-18T06:52:05.660Z,970.80
2018-10-18T06:53:05.620Z,970.78
2018-10-18T06:54:05.603Z,970.81
2018-10-18T06:55:05.556Z,970.82
2018-10-18T06:56:05.454Z,970.87
2018-10-18T06:57:05.398Z,970.87
2018-10-18T06:58:05.379Z,970.88
2018-10-18T06:59:05.327Z,970.91
2018-10-18T07:00:05.335Z,970.85
2018-10-18T07:01:05.192Z,970.87
2018-10-18T07:02:05.145Z,970.86
2018-10-18T07:03:05.097Z,970.88
2018-10-18T07:04:05.037Z,970.92
2018-10-18T07:05:05.026Z,970.92
2018-10-18T07:06:04.942Z,970.93
2018-10-18T07:07:04.882Z,970.96
2018-10-18T07:08:04.830Z,970.94
2018-10-18T07:09:04.788Z,970.92
2018-10-18T07:10:04.765Z,970.94
2018-10-18T07:11:04.787Z,970.95
2018-10-18T07:12:04.677Z,970.92
2018-10-18T07:13:04.575Z,970.90
2018-10-18T07:14:04.533Z,970.94
2018-10-18T07:15:04.541Z,970.95
2018-10-18T07:16:04.423Z,971.00
2018-10-18T07:17:04.372Z,970.94
2018-10-18T07:18:04.362Z,971.01
2018-10-18T07:19:04.263Z,970.99
2018-10-18T07:20:04.244Z,971.00
2018-10-18T07:21:04.166Z,971.04
2018-10-18T07:22:04.113Z,971.07
2018-10-18T07:23:04.059Z,971.05
2018-10-18T07:24:04.054Z,971.10
2018-10-18T07:25:04.046Z,971.10
2018-10-18T07:26:03.903Z,971.09
2018-10-18T07:27:03.850Z,971.10
2018-10-18T07:28:03.818Z,971.11
2018-10-18T07:29:03.753Z,971.10
2018-10-18T07:30:03.795Z,971.10
2018-10-18T07:31:03.642Z,971.11
2018-10-18T07:32:03.602Z,971.09
2018-10-18T07:33:03.542Z,971.10
2018-10-18T07:34:03.491Z,971.08
2018-10-18T07:35:03.531Z,971.06
2018-10-18T07:36:03.449Z,971.09
2018-10-18T07:37:03.341Z,971.08
2018-10-18T07:38:03.288Z,971.08
2018-10-18T07:39:03.233Z,971.12
2018-10-18T07:40:03.219Z,971.12
2018-10-18T07:41:03.158Z,971.14
2018-10-18T07:42:03.133Z,971.14
2018-10-18T07:43:03.061Z,971.14
2018-10-18T07:44:02.979Z,971.20
2018-10-18T07:45:02.924Z,971.23
2018-10-18T07:46:02.878Z,971.19
2018-10-18T07:47:02.979Z,971.16
2018-10-18T07:48:02.829Z,971.22
2018-10-18T07:49:02.721Z,971.24
2018-10-18T07:50:02.673Z,971.23
2018-10-18T07:51:02.622Z,971.26
2018-10-18T07:52:02.605Z,971.29
2018-10-18T07:53:02.621Z,971.27
2018-10-18T07:54:02.523Z,971.32
2018-10-18T07:55:02.420Z,971.38
2018-10-18T07:56:02.382Z,971.39
2018-10-18T07:57:02.349Z,971.40
2018-10-18T07:58:02.265Z,971.39
2018-10-18T07:59:02.212Z,971.43
2018-10-18T08:00:02.270Z,971.46
2018-10-18T08:01:02.116Z,971.46
2018-10-18T08:02:02.093Z,971.44
2018-10-18T08:03:02.011Z,971.44
2018-10-18T08:04:01.958Z,971.47
2018-10-18T08:05:01.908Z,971.48
2018-10-18T08:06:01.856Z,971.48
2018-10-18T08:07:01.882Z,971.48
2018-10-18T08:08:01.784Z,971.51
2018-10-18T08:09:01.704Z,971.48
2018-10-18T08:10:01.716Z,971.52
2018-10-18T08:11:01.627Z,971.52
2018-10-18T08:12:01.549Z,971.54
2018-10-18T08:13:01.554Z,971.54
2018-10-18T08:14:01.456Z,971.50
2018-10-18T08:15:01.402Z,971.51
2018-10-18T08:16:01.345Z,971.51
2018-10-18T08:17:01.448Z,971.51
2018-10-18T08:18:01.280Z,971.52
2018-10-18T08:19:01.250Z,971.51
2018-10-18T08:20:01.148Z,971.53
2018-10-18T08:21:01.092Z,971.50
2018-10-18T08:22:01.042Z,971.55
2018-10-18T08:23:01.024Z,971.58
2018-10-18T08:24:00.945Z,971.56
2018-10-18T08:25:00.917Z,971.52
2018-10-18T08:26:00.885Z,971.53
2018-10-18T08:27:00.791Z,971.47
2018-10-18T08:28:00.743Z,971.46
2018-10-18T08:29:00.696Z,971.47
2018-10-18T08:30:00.645Z,971.47
2018-10-18T08:31:00.654Z,971.46
2018-10-18T08:32:00.544Z,971.47
2018-10-18T08:33:00.519Z,971.42
2018-10-18T08:34:00.444Z,971.41
2018-10-18T08:35:00.388Z,971.42
2018-10-18T08:36:00.338Z,971.45
2018-10-18T08:37:00.338Z,971.46
2018-10-18T08:38:00.420Z,971.47
2018-10-18T08:39:00.186Z,971.50
2018-10-18T08:40:00.138Z,971.51
2018-10-18T08:41:00.118Z,971.54
2018-10-18T08:42:00.037Z,971.53
2018-10-18T08:43:00.055Z,971.53
2018-10-18T08:43:59.951Z,971.55
2018-10-18T08:44:59.890Z,971.57
2018-10-18T08:45:59.838Z,971.59
2018-10-18T08:46:59.793Z,971.63
2018-10-18T08:47:59.766Z,971.59
2018-10-18T08:48:59.712Z,971.60
2018-10-18T08:49:59.816Z,971.60
2018-10-18T08:50:59.621Z,971.55
2018-10-18T08:51:59.541Z,971.57
2018-10-18T08:52:59.485Z,971.58
2018-10-18T08:53:59.435Z,971.58
2018-10-18T08:54:59.419Z,971.58
2018-10-18T08:55:59.376Z,971.58
2018-10-18T08:56:59.303Z,971.59
2018-10-18T08:57:59.251Z,971.54
2018-10-18T08:58:59.196Z,971.53
2018-10-18T08:59:59.140Z,971.58
2018-10-18T09:00:59.175Z,971.58
2018-10-18T09:01:59.040Z,971.58
2018-10-18T09:02:58.997Z,971.59
2018-10-18T09:03:58.939Z,971.63
2018-10-18T09:04:58.894Z,971.63
2018-10-18T09:05:58.883Z,971.53
2018-10-18T09:06:58.824Z,971.58
2018-10-18T09:07:58.741Z,971.56
2018-10-18T09:08:58.708Z,971.54
2018-10-18T09:09:58.644Z,971.55
2018-10-18T09:10:58.631Z,971.54
2018-10-18T09:11:58.546Z,971.51
2018-10-18T09:12:58.509Z,971.56
2018-10-18T09:13:58.448Z,971.54
2018-10-18T09:14:58.425Z,971.51
2018-10-18T09:15:58.478Z,971.52
2018-10-18T09:16:58.304Z,971.53
2018-10-18T09:17:58.256Z,971.53
2018-10-18T09:18:58.219Z,971.53
2018-10-18T09:19:58.164Z,971.58
2018-10-18T09:20:58.151Z,971.57
2018-10-18T09:21:58.064Z,971.54
2018-10-18T09:22:58.015Z,971.54
2018-10-18T09:23:58.067Z,971.51
2018-10-18T09:24:57.923Z,971.48
2018-10-18T09:25:57.906Z,971.49
2018-10-18T09:26:57.825Z,971.50
2018-10-18T09:27:57.769Z,971.46
2018-10-18T09:28:57.718Z,971.48
2018-10-18T09:29:57.705Z,971.45
2018-10-18T09:30:57.625Z,971.48
2018-10-18T09:31:57.604Z,971.46
2018-10-18T09:32:57.529Z,971.46
2018-10-18T09:33:57.482Z,971.46
2018-10-18T09:34:57.459Z,971.45
2018-10-18T09:35:57.380Z,971.48
2018-10-18T09:36:57.336Z,971.47
2018-10-18T09:37:57.283Z,971.42
2018-10-18T09:38:57.241Z,971.45
2018-10-18T09:39:57.224Z,971.48
2018-10-18T09:40:57.138Z,971.47
2018-10-18T09:41:57.090Z,971.46
2018-10-18T09:42:57.075Z,971.42
2018-10-18T09:43:56.993Z,971.46
2018-10-18T09:44:57.051Z,971.43
2018-10-18T09:45:56.902Z,971.44
2018-10-18T09:46:56.848Z,971.42
2018-10-18T09:47:56.798Z,971.47
2018-10-18T09:48:56.823Z,971.45
2018-10-18T09:49:56.703Z,971.43
2018-10-18T09:50:56.746Z,971.39
2018-10-18T09:51:56.609Z,971.40
2018-10-18T09:52:56.566Z,971.43
2018-10-18T09:53:56.544Z,971.44
2018-10-18T09:54:56.497Z,971.44
2018-10-18T09:55:56.453Z,971.41
2018-10-18T09:56:56.369Z,971.47
2018-10-18T09:57:56.325Z,971.44
2018-10-18T09:58:56.307Z,971.39
2018-10-18T09:59:56.226Z,971.41
2018-10-18T10:00:56.249Z,971.38
2018-10-18T10:01:56.131Z,971.40
2018-10-18T10:02:56.126Z,971.41
2018-10-18T10:03:56.037Z,971.39
2018-10-18T10:04:56.021Z,971.34
2018-10-18T10:05:55.977Z,971.38
2018-10-18T10:06:55.934Z,971.34
2018-10-18T10:07:55.850Z,971.38
2018-10-18T10:08:55.844Z,971.40
2018-10-18T10:09:55.782Z,971.37
2018-10-18T10:10:55.715Z,971.35
2018-10-18T10:11:55.661Z,971.36
2018-10-18T10:12:55.655Z,971.34
2018-10-18T10:13:55.558Z,971.37
2018-10-18T10:14:55.560Z,971.33
2018-10-18T10:15:55.482Z,971.37
2018-10-18T10:16:55.416Z,971.35
2018-10-18T10:17:55.373Z,971.38
2018-10-18T10:18:55.337Z,971.35
2018-10-18T10:19:55.328Z,971.35
2018-10-18T10:20:55.232Z,971.38
2018-10-18T10:21:55.179Z,971.40
2018-10-18T10:22:55.136Z,971.41
2018-10-18T10:23:55.085Z,971.39
2018-10-18T10:24:55.079Z,971.43
2018-10-18T10:25:55.013Z,971.40
2018-10-18T10:26:54.943Z,971.38
2018-10-18T10:27:54.892Z,971.38
2018-10-18T10:28:54.846Z,971.43
2018-10-18T10:29:54.839Z,971.44
2018-10-18T10:30:54.789Z,971.46
2018-10-18T10:31:54.705Z,971.43
2018-10-18T10:32:54.732Z,971.44
2018-10-18T10:33:54.609Z,971.41
2018-10-18T10:34:54.616Z,971.38
2018-10-18T10:35:54.559Z,971.36
2018-10-18T10:36:54.484Z,971.39
2018-10-18T10:37:54.428Z,971.38
2018-10-18T10:38:54.427Z,971.44
2018-10-18T10:39:54.336Z,971.44
2018-10-18T10:40:54.323Z,971.52
2018-10-18T10:41:54.288Z,971.55
2018-10-18T10:42:54.283Z,971.49
2018-10-18T10:43:54.144Z,971.50
2018-10-18T10:44:54.110Z,971.48
2018-10-18T10:45:54.166Z,971.47
2018-10-18T10:46:54.002Z,971.41
2018-10-18T10:47:54.036Z,971.40
2018-10-18T10:48:53.959Z,971.38
2018-10-18T10:49:53.867Z,971.37
2018-10-18T10:50:53.822Z,971.38
2018-10-18T10:51:53.872Z,971.36
2018-10-18T10:52:53.731Z,971.34
2018-10-18T10:53:53.690Z,971.33
2018-10-18T10:54:53.641Z,971.32
2018-10-18T10:55:53.625Z,971.33
2018-10-18T10:56:53.633Z,971.37
2018-10-18T10:57:53.535Z,971.36
2018-10-18T10:58:53.505Z,971.35
2018-10-18T10:59:53.419Z,971.32
2018-10-18T11:00:53.374Z,971.30
2018-10-18T11:01:53.393Z,971.30
2018-10-18T11:02:53.342Z,971.23
2018-10-18T11:03:53.245Z,971.24
2018-10-18T11:04:53.198Z,971.25
2018-10-18T11:05:53.184Z,971.25
2018-10-18T11:06:53.239Z,971.27
2018-10-18T11:07:53.077Z,971.27
2018-10-18T11:15:00.467Z,971.33
2018-10-18T11:16:00.415Z,971.36
2018-10-18T11:17:00.372Z,971.44
2018-10-18T11:18:00.399Z,971.34
2018-10-18T11:19:00.288Z,971.45
2018-10-18T11:20:00.292Z,971.43
2018-10-18T11:21:00.228Z,971.45
2018-10-18T11:22:00.200Z,971.41
2018-10-18T11:23:00.118Z,971.41
2018-10-18T11:24:00.129Z,971.41
2018-10-18T11:25:00.060Z,971.44
2018-10-18T11:25:59.990Z,971.42
2018-10-18T11:27:00.009Z,971.42
2018-10-18T11:27:59.903Z,971.49
2018-10-18T11:28:59.862Z,971.52
2018-10-18T11:29:59.868Z,971.49
2018-10-18T11:30:59.774Z,971.49
2018-10-18T11:31:59.811Z,971.51
2018-10-18T11:32:59.737Z,971.50
2018-10-18T11:33:59.646Z,971.54
2018-10-18T11:34:59.634Z,971.51
2018-10-18T11:35:59.590Z,971.50
2018-10-18T11:36:59.555Z,971.51
2018-10-18T11:37:59.489Z,971.51
2018-10-18T11:38:59.431Z,971.51
2018-10-18T11:39:59.385Z,971.55
2018-10-18T11:40:59.354Z,971.56
2018-10-18T11:41:59.382Z,971.55
2018-10-18T11:42:59.258Z,971.57
2018-10-18T11:43:59.225Z,971.56
2018-10-18T11:44:59.177Z,971.53
2018-10-18T11:45:59.133Z,971.59
2018-10-18T11:46:59.119Z,971.54
2018-10-18T11:47:59.073Z,971.57
2018-10-18T11:48:59.001Z,971.51
2018-10-18T11:49:59.005Z,971.54
2018-10-18T11:50:58.917Z,971.58
2018-10-18T11:51:58.966Z,971.56
2018-10-18T11:52:58.834Z,971.57
2018-10-18T11:53:58.884Z,971.55
2018-10-18T11:54:58.744Z,971.56
2018-10-18T11:55:58.752Z,971.53
2018-10-18T11:56:58.716Z,971.53
2018-10-18T11:57:58.622Z,971.52
2018-10-18T11:58:58.635Z,971.52
2018-10-18T11:59:58.537Z,971.50
2018-10-18T12:00:58.490Z,971.51
2018-10-18T12:01:58.509Z,971.50
2018-10-18T12:02:58.409Z,971.48
2018-10-18T12:03:58.496Z,971.46
2018-10-18T12:04:58.326Z,971.45
2018-10-18T12:05:58.282Z,971.49
2018-10-18T12:06:58.231Z,971.51
2018-10-18T12:07:58.254Z,971.48
2018-10-18T12:08:58.188Z,971.55
2018-10-18T12:09:58.142Z,971.47
2018-10-18T12:10:58.098Z,971.50
2018-10-18T12:11:58.019Z,971.46
2018-10-18T12:12:57.978Z,971.45
2018-10-18T12:13:57.938Z,971.41
2018-10-18T12:14:57.942Z,971.40
2018-10-18T12:15:57.851Z,971.42
2018-10-18T12:16:57.819Z,971.40
2018-10-18T12:17:57.764Z,971.39
2018-10-18T12:18:57.758Z,971.42
2018-10-18T12:19:57.717Z,971.41
2018-10-18T12:20:57.648Z,971.36
2018-10-18T12:21:57.595Z,971.32
2018-10-18T12:22:57.577Z,971.30
2018-10-18T12:23:57.506Z,971.30
2018-10-18T12:24:57.503Z,971.31
2018-10-18T12:25:57.444Z,971.31
2018-10-18T12:26:57.473Z,971.34
2018-10-18T12:27:57.345Z,971.30
2018-10-18T12:28:57.376Z,971.32
2018-10-18T12:29:57.257Z,971.28
2018-10-18T12:30:57.211Z,971.24
2018-10-18T12:31:57.179Z,971.29
2018-10-18T12:32:57.167Z,971.24
2018-10-18T12:33:57.120Z,971.26